Alken, Belgium
Current Conditions -  °F | °C
As of 8:25 AM on Sunday 21 Dec 2014 (Local Time) from EBDT Reporting Station
Scattered Clouds Scattered Clouds  
Wind Chill: 34°   Ceiling: Unl
Heat Index: 39°   Visibility: 6mi
Dew Point: 37°   Wind: 7mph
Humidity: 93%   Direction: 210°SSW
Pressure: 30.42"   Gusts: NA
Location:  50.88°N, 5.31°E
Report Text: EBDT 210725Z AUTO 21006KT 9999 SCT210/// 04/03 Q1030 BLU
Loading
Personal Weather Stations






























Interactive Weather Map New forecast layout! Learn more

10-Day Weather Forecast

Advertisements
Track Severe Weather on mobile